sensor_id;sensor_type;location;lat;lon;timestamp;pressure;altitude;pressure_sealevel;temperature;humidity
19600;BME280;9947;57.722;12.012;2023-09-19T00:00:23;99869.28;;;16.71;100.00
19600;BME280;9947;57.722;12.012;2023-09-19T00:02:56;99867.41;;;16.71;100.00
19600;BME280;9947;57.722;12.012;2023-09-19T00:05:25;99858.34;;;16.71;100.00
19600;BME280;9947;57.722;12.012;2023-09-19T00:07:55;99860.91;;;16.72;100.00
19600;BME280;9947;57.722;12.012;2023-09-19T00:10:24;99851.50;;;16.75;100.00
19600;BME280;9947;57.722;12.012;2023-09-19T00:12:57;99842.28;;;16.76;100.00
19600;BME280;9947;57.722;12.012;2023-09-19T00:15:26;99832.22;;;16.76;100.00
19600;BME280;9947;57.722;12.012;2023-09-19T00:17:57;99812.09;;;16.77;100.00
19600;BME280;9947;57.722;12.012;2023-09-19T00:20:24;99808.38;;;16.70;100.00
19600;BME280;9947;57.722;12.012;2023-09-19T00:22:51;99804.13;;;16.68;100.00
19600;BME280;9947;57.722;12.012;2023-09-19T00:25:19;99806.69;;;16.69;100.00
19600;BME280;9947;57.722;12.012;2023-09-19T00:27:47;99816.41;;;16.72;100.00
19600;BME280;9947;57.722;12.012;2023-09-19T00:30:20;99832.94;;;16.70;100.00
19600;BME280;9947;57.722;12.012;2023-09-19T00:32:51;99820.16;;;16.71;100.00
19600;BME280;9947;57.722;12.012;2023-09-19T00:35:20;99808.38;;;16.70;100.00
19600;BME280;9947;57.722;12.012;2023-09-19T00:37:49;99811.97;;;16.71;100.00
19600;BME280;9947;57.722;12.012;2023-09-19T00:40:16;99811.28;;;16.69;100.00
19600;BME280;9947;57.722;12.012;2023-09-19T00:42:45;99804.81;;;16.70;100.00
19600;BME280;9947;57.722;12.012;2023-09-19T00:45:15;99796.81;;;16.68;100.00
19600;BME280;9947;57.722;12.012;2023-09-19T00:47:49;99802.56;;;16.65;100.00
19600;BME280;9947;57.722;12.012;2023-09-19T00:50:18;99789.47;;;16.60;100.00
19600;BME280;9947;57.722;12.012;2023-09-19T00:52:49;99772.59;;;16.57;100.00
19600;BME280;9947;57.722;12.012;2023-09-19T00:55:22;99768.19;;;16.56;100.00
19600;BME280;9947;57.722;12.012;2023-09-19T00:57:51;99771.28;;;16.53;100.00
19600;BME280;9947;57.722;12.012;2023-09-19T01:00:18;99770.97;;;16.48;100.00
19600;BME280;9947;57.722;12.012;2023-09-19T01:02:47;99760.22;;;16.46;100.00
19600;BME280;9947;57.722;12.012;2023-09-19T01:05:14;99752.59;;;16.42;100.00
19600;BME280;9947;57.722;12.012;2023-09-19T01:07:44;99750.06;;;16.32;100.00
19600;BME280;9947;57.722;12.012;2023-09-19T01:10:16;99748.19;;;16.32;100.00
19600;BME280;9947;57.722;12.012;2023-09-19T01:12:51;99742.06;;;16.30;100.00
19600;BME280;9947;57.722;12.012;2023-09-19T01:15:28;99739.03;;;16.25;100.00
19600;BME280;9947;57.722;12.012;2023-09-19T01:18:08;99735.28;;;16.26;100.00
19600;BME280;9947;57.722;12.012;2023-09-19T01:20:43;99733.94;;;16.22;100.00
19600;BME280;9947;57.722;12.012;2023-09-19T01:23:19;99734.44;;;16.26;100.00
19600;BME280;9947;57.722;12.012;2023-09-19T01:26:07;99728.78;;;16.27;100.00
19600;BME280;9947;57.722;12.012;2023-09-19T01:28:53;99724.38;;;16.26;100.00
19600;BME280;9947;57.722;12.012;2023-09-19T01:31:23;99718.91;;;16.26;100.00
19600;BME280;9947;57.722;12.012;2023-09-19T01:34:00;99708.38;;;16.23;100.00
19600;BME280;9947;57.722;12.012;2023-09-19T01:36:31;99716.38;;;16.25;100.00
19600;BME280;9947;57.722;12.012;2023-09-19T01:39:02;99718.91;;;16.26;100.00
19600;BME280;9947;57.722;12.012;2023-09-19T01:41:53;99715.81;;;16.29;100.00
19600;BME280;9947;57.722;12.012;2023-09-19T01:44:29;99713.28;;;16.28;100.00
19600;BME280;9947;57.722;12.012;2023-09-19T01:47:04;99712.25;;;16.29;100.00
19600;BME280;9947;57.722;12.012;2023-09-19T01:49:54;99717.34;;;16.32;100.00
19600;BME280;9947;57.722;12.012;2023-09-19T01:52:26;99714.06;;;16.37;100.00
19600;BME280;9947;57.722;12.012;2023-09-19T01:55:05;99707.41;;;16.39;100.00
19600;BME280;9947;57.722;12.012;2023-09-19T01:57:35;99702.47;;;16.43;100.00
19600;BME280;9947;57.722;12.012;2023-09-19T02:00:11;99717.13;;;16.42;100.00
19600;BME280;9947;57.722;12.012;2023-09-19T02:02:44;99702.13;;;16.38;100.00
19600;BME280;9947;57.722;12.012;2023-09-19T02:05:13;99702.09;;;16.46;100.00
19600;BME280;9947;57.722;12.012;2023-09-19T02:07:41;99707.84;;;16.51;100.00
19600;BME280;9947;57.722;12.012;2023-09-19T02:10:10;99703.25;;;16.51;100.00
19600;BME280;9947;57.722;12.012;2023-09-19T02:12:38;99691.31;;;16.52;100.00
19600;BME280;9947;57.722;12.012;2023-09-19T02:15:07;99679.19;;;16.55;100.00
19600;BME280;9947;57.722;12.012;2023-09-19T02:17:34;99668.25;;;16.55;100.00
19600;BME280;9947;57.722;12.012;2023-09-19T02:20:06;99651.72;;;16.56;100.00
19600;BME280;9947;57.722;12.012;2023-09-19T02:22:41;99641.47;;;16.58;100.00
19600;BME280;9947;57.722;12.012;2023-09-19T02:25:09;99639.09;;;16.55;100.00
19600;BME280;9947;57.722;12.012;2023-09-19T02:27:39;99638.72;;;16.58;100.00
19600;BME280;9947;57.722;12.012;2023-09-19T02:30:08;99639.75;;;16.57;100.00
19600;BME280;9947;57.722;12.012;2023-09-19T02:32:36;99626.41;;;16.62;100.00
19600;BME280;9947;57.722;12.012;2023-09-19T02:35:08;99611.91;;;16.62;100.00
19600;BME280;9947;57.722;12.012;2023-09-19T02:37:37;99618.22;;;16.62;100.00
19600;BME280;9947;57.722;12.012;2023-09-19T02:40:06;99612.59;;;16.64;100.00
19600;BME280;9947;57.722;12.012;2023-09-19T02:42:46;99617.88;;;16.65;100.00
19600;BME280;9947;57.722;12.012;2023-09-19T02:45:17;99599.47;;;16.68;100.00
19600;BME280;9947;57.722;12.012;2023-09-19T02:47:48;99587.72;;;16.67;100.00
19600;BME280;9947;57.722;12.012;2023-09-19T02:50:17;99577.66;;;16.68;100.00
19600;BME280;9947;57.722;12.012;2023-09-19T02:52:45;99562.31;;;16.67;100.00
19600;BME280;9947;57.722;12.012;2023-09-19T02:55:17;99544.91;;;16.68;100.00
19600;BME280;9947;57.722;12.012;2023-09-19T02:57:46;99526.66;;;16.68;100.00
19600;BME280;9947;57.722;12.012;2023-09-19T03:02:57;99475.47;;;16.70;100.00
19600;BME280;9947;57.722;12.012;2023-09-19T03:05:31;99443.75;;;16.69;100.00
19600;BME280;9947;57.722;12.012;2023-09-19T03:10:27;99408.28;;;16.69;100.00
19600;BME280;9947;57.722;12.012;2023-09-19T03:12:56;99386.47;;;16.69;100.00
19600;BME280;9947;57.722;12.012;2023-09-19T03:15:25;99355.78;;;16.67;100.00
19600;BME280;9947;57.722;12.012;2023-09-19T03:17:54;99336.16;;;16.63;100.00
19600;BME280;9947;57.722;12.012;2023-09-19T03:20:29;99323.19;;;16.65;100.00
19600;BME280;9947;57.722;12.012;2023-09-19T03:22:59;99316.88;;;16.65;100.00
19600;BME280;9947;57.722;12.012;2023-09-19T03:25:28;99300.81;;;16.70;100.00
19600;BME280;9947;57.722;12.012;2023-09-19T03:27:56;99293.19;;;16.65;100.00
19600;BME280;9947;57.722;12.012;2023-09-19T03:30:26;99289.59;;;16.65;100.00
19600;BME280;9947;57.722;12.012;2023-09-19T03:32:53;99273.94;;;16.67;100.00
19600;BME280;9947;57.722;12.012;2023-09-19T03:35:21;99264.91;;;16.67;100.00
19600;BME280;9947;57.722;12.012;2023-09-19T03:37:49;99235.72;;;16.67;100.00
19600;BME280;9947;57.722;12.012;2023-09-19T03:40:18;99227.88;;;16.64;100.00
19600;BME280;9947;57.722;12.012;2023-09-19T03:42:47;99237.47;;;16.60;100.00
19600;BME280;9947;57.722;12.012;2023-09-19T03:45:15;99232.22;;;16.58;100.00
19600;BME280;9947;57.722;12.012;2023-09-19T03:47:44;99230.53;;;16.57;100.00
19600;BME280;9947;57.722;12.012;2023-09-19T03:50:12;99223.78;;;16.53;100.00
19600;BME280;9947;57.722;12.012;2023-09-19T03:52:44;99220.41;;;16.51;100.00
19600;BME280;9947;57.722;12.012;2023-09-19T03:55:14;99215.34;;;16.48;100.00
19600;BME280;9947;57.722;12.012;2023-09-19T03:57:42;99213.00;;;16.45;100.00
19600;BME280;9947;57.722;12.012;2023-09-19T04:00:11;99187.50;;;16.38;100.00
19600;BME280;9947;57.722;12.012;2023-09-19T04:02:41;99194.19;;;16.35;100.00
19600;BME280;9947;57.722;12.012;2023-09-19T04:05:09;99186.19;;;16.34;100.00
19600;BME280;9947;57.722;12.012;2023-09-19T04:07:36;99181.78;;;16.33;100.00
19600;BME280;9947;57.722;12.012;2023-09-19T04:12:31;99178.66;;;16.36;100.00
19600;BME280;9947;57.722;12.012;2023-09-19T04:15:04;99181.41;;;16.36;100.00
19600;BME280;9947;57.722;12.012;2023-09-19T04:17:44;99162.41;;;16.43;100.00
19600;BME280;9947;57.722;12.012;2023-09-19T04:20:14;99149.63;;;16.43;100.00
19600;BME280;9947;57.722;12.012;2023-09-19T04:25:42;99166.72;;;16.37;100.00
19600;BME280;9947;57.722;12.012;2023-09-19T04:34:02;99192.81;;;16.25;100.00
19600;BME280;9947;57.722;12.012;2023-09-19T04:36:30;99193.22;;;16.22;100.00
19600;BME280;9947;57.722;12.012;2023-09-19T04:38:57;99201.31;;;16.15;100.00
19600;BME280;9947;57.722;12.012;2023-09-19T04:41:25;99212.22;;;16.15;100.00
19600;BME280;9947;57.722;12.012;2023-09-19T04:43:52;99204.78;;;16.09;100.00
19600;BME280;9947;57.722;12.012;2023-09-19T04:46:21;99190.03;;;16.03;100.00
19600;BME280;9947;57.722;12.012;2023-09-19T04:48:48;99175.94;;;16.00;100.00
19600;BME280;9947;57.722;12.012;2023-09-19T04:51:19;99165.16;;;15.92;100.00
19600;BME280;9947;57.722;12.012;2023-09-19T04:53:47;99157.53;;;15.87;100.00
19600;BME280;9947;57.722;12.012;2023-09-19T04:56:18;99159.53;;;15.79;100.00
19600;BME280;9947;57.722;12.012;2023-09-19T04:58:46;99164.97;;;15.79;100.00
19600;BME280;9947;57.722;12.012;2023-09-19T05:01:14;99153.34;;;15.70;100.00
19600;BME280;9947;57.722;12.012;2023-09-19T05:03:46;99133.34;;;15.63;100.00
19600;BME280;9947;57.722;12.012;2023-09-19T05:06:22;99110.38;;;15.57;100.00
19600;BME280;9947;57.722;12.012;2023-09-19T05:08:52;99115.53;;;15.52;100.00
19600;BME280;9947;57.722;12.012;2023-09-19T05:11:20;99103.72;;;15.45;100.00
19600;BME280;9947;57.722;12.012;2023-09-19T05:13:52;99097.53;;;15.36;100.00
19600;BME280;9947;57.722;12.012;2023-09-19T05:16:20;99092.09;;;15.36;100.00
19600;BME280;9947;57.722;12.012;2023-09-19T05:18:48;99094.69;;;15.30;100.00
19600;BME280;9947;57.722;12.012;2023-09-19T05:21:22;99083.72;;;15.23;100.00
19600;BME280;9947;57.722;12.012;2023-09-19T05:23:53;99076.78;;;15.21;100.00
19600;BME280;9947;57.722;12.012;2023-09-19T05:26:21;99076.50;;;15.16;100.00
19600;BME280;9947;57.722;12.012;2023-09-19T05:28:51;99078.56;;;15.14;100.00
19600;BME280;9947;57.722;12.012;2023-09-19T05:31:20;99081.47;;;15.12;100.00
19600;BME280;9947;57.722;12.012;2023-09-19T05:33:46;99066.66;;;15.15;100.00
19600;BME280;9947;57.722;12.012;2023-09-19T05:36:15;99067.69;;;15.14;100.00
19600;BME280;9947;57.722;12.012;2023-09-19T05:38:45;99071.97;;;15.08;100.00
19600;BME280;9947;57.722;12.012;2023-09-19T05:41:15;99081.16;;;15.07;100.00
19600;BME280;9947;57.722;12.012;2023-09-19T05:43:44;99077.59;;;15.06;100.00
19600;BME280;9947;57.722;12.012;2023-09-19T05:46:11;99080.34;;;15.06;100.00
19600;BME280;9947;57.722;12.012;2023-09-19T05:48:43;99075.38;;;15.10;100.00
19600;BME280;9947;57.722;12.012;2023-09-19T05:51:14;99090.38;;;15.06;100.00
19600;BME280;9947;57.722;12.012;2023-09-19T05:53:43;99106.69;;;15.06;100.00
19600;BME280;9947;57.722;12.012;2023-09-19T05:56:12;99084.09;;;15.05;100.00
19600;BME280;9947;57.722;12.012;2023-09-19T05:58:40;99101.16;;;14.99;100.00
19600;BME280;9947;57.722;12.012;2023-09-19T06:01:09;99097.03;;;15.03;100.00
19600;BME280;9947;57.722;12.012;2023-09-19T06:03:38;99078.38;;;15.00;100.00
19600;BME280;9947;57.722;12.012;2023-09-19T06:08:30;99084.75;;;14.93;100.00
19600;BME280;9947;57.722;12.012;2023-09-19T06:11:00;99086.25;;;14.95;100.00
19600;BME280;9947;57.722;12.012;2023-09-19T06:13:33;99086.25;;;14.95;100.00
19600;BME280;9947;57.722;12.012;2023-09-19T06:16:01;99087.94;;;14.96;100.00
19600;BME280;9947;57.722;12.012;2023-09-19T06:18:30;99083.63;;;14.87;100.00
19600;BME280;9947;57.722;12.012;2023-09-19T06:21:01;99078.53;;;14.84;100.00
19600;BME280;9947;57.722;12.012;2023-09-19T06:23:31;99084.16;;;14.82;100.00
19600;BME280;9947;57.722;12.012;2023-09-19T06:26:00;99103.28;;;14.74;100.00
19600;BME280;9947;57.722;12.012;2023-09-19T06:28:34;99136.88;;;14.36;100.00
19600;BME280;9947;57.722;12.012;2023-09-19T06:31:02;99155.88;;;14.13;100.00
19600;BME280;9947;57.722;12.012;2023-09-19T06:33:37;99178.63;;;13.81;100.00
19600;BME280;9947;57.722;12.012;2023-09-19T06:36:06;99175.66;;;13.51;100.00
19600;BME280;9947;57.722;12.012;2023-09-19T06:38:34;99224.38;;;13.37;100.00
19600;BME280;9947;57.722;12.012;2023-09-19T06:43:28;99246.94;;;13.13;100.00
19600;BME280;9947;57.722;12.012;2023-09-19T06:45:59;99247.44;;;13.00;100.00
19600;BME280;9947;57.722;12.012;2023-09-19T06:48:27;99272.72;;;13.17;100.00
19600;BME280;9947;57.722;12.012;2023-09-19T06:50:59;99264.59;;;13.33;100.00
19600;BME280;9947;57.722;12.012;2023-09-19T06:53:28;99283.09;;;13.38;100.00
19600;BME280;9947;57.722;12.012;2023-09-19T06:55:58;99275.94;;;13.61;100.00
19600;BME280;9947;57.722;12.012;2023-09-19T06:58:29;99261.28;;;13.78;100.00
19600;BME280;9947;57.722;12.012;2023-09-19T07:01:01;99257.00;;;13.92;100.00
19600;BME280;9947;57.722;12.012;2023-09-19T07:03:29;99231.97;;;14.13;100.00
19600;BME280;9947;57.722;12.012;2023-09-19T07:06:00;99205.41;;;14.23;100.00
19600;BME280;9947;57.722;12.012;2023-09-19T07:08:30;99197.84;;;14.41;100.00
19600;BME280;9947;57.722;12.012;2023-09-19T07:10:58;99190.66;;;14.48;100.00
19600;BME280;9947;57.722;12.012;2023-09-19T07:13:26;99186.81;;;14.66;100.00
19600;BME280;9947;57.722;12.012;2023-09-19T07:15:56;99178.41;;;14.75;100.00
19600;BME280;9947;57.722;12.012;2023-09-19T07:18:27;99160.41;;;14.74;100.00
19600;BME280;9947;57.722;12.012;2023-09-19T07:20:57;99163.53;;;14.86;100.00
19600;BME280;9947;57.722;12.012;2023-09-19T07:23:31;99145.16;;;14.88;100.00
19600;BME280;9947;57.722;12.012;2023-09-19T07:28:34;99155.97;;;14.96;100.00
19600;BME280;9947;57.722;12.012;2023-09-19T07:31:02;99161.03;;;14.99;100.00
19600;BME280;9947;57.722;12.012;2023-09-19T07:33:32;99147.28;;;15.16;100.00
19600;BME280;9947;57.722;12.012;2023-09-19T07:36:00;99147.56;;;15.21;100.00
19600;BME280;9947;57.722;12.012;2023-09-19T07:38:27;99140.31;;;15.28;100.00
19600;BME280;9947;57.722;12.012;2023-09-19T07:41:00;99138.06;;;15.17;100.00
19600;BME280;9947;57.722;12.012;2023-09-19T07:43:27;99141.13;;;14.84;100.00
19600;BME280;9947;57.722;12.012;2023-09-19T07:45:56;99155.56;;;14.85;100.00
19600;BME280;9947;57.722;12.012;2023-09-19T07:48:26;99146.28;;;14.94;100.00
19600;BME280;9947;57.722;12.012;2023-09-19T07:50:55;99146.16;;;15.25;100.00
19600;BME280;9947;57.722;12.012;2023-09-19T07:53:22;99137.19;;;15.01;100.00
19600;BME280;9947;57.722;12.012;2023-09-19T07:55:50;99155.66;;;14.91;100.00
19600;BME280;9947;57.722;12.012;2023-09-19T07:58:24;99136.09;;;14.73;100.00
19600;BME280;9947;57.722;12.012;2023-09-19T08:00:52;99135.00;;;14.82;100.00
19600;BME280;9947;57.722;12.012;2023-09-19T08:03:22;99136.44;;;14.93;100.00
19600;BME280;9947;57.722;12.012;2023-09-19T08:05:49;99131.41;;;15.19;100.00
19600;BME280;9947;57.722;12.012;2023-09-19T08:08:18;99135.53;;;15.30;100.00
19600;BME280;9947;57.722;12.012;2023-09-19T08:10:52;99118.16;;;15.31;100.00
19600;BME280;9947;57.722;12.012;2023-09-19T08:13:22;99125.97;;;15.19;100.00
19600;BME280;9947;57.722;12.012;2023-09-19T08:15:49;99121.28;;;15.28;100.00
19600;BME280;9947;57.722;12.012;2023-09-19T08:18:18;99093.13;;;15.21;100.00
19600;BME280;9947;57.722;12.012;2023-09-19T08:20:49;99120.13;;;15.07;100.00
19600;BME280;9947;57.722;12.012;2023-09-19T08:23:17;99103.63;;;15.24;100.00
19600;BME280;9947;57.722;12.012;2023-09-19T08:25:47;99100.06;;;15.38;100.00
19600;BME280;9947;57.722;12.012;2023-09-19T08:28:14;99096.31;;;15.68;100.00
19600;BME280;9947;57.722;12.012;2023-09-19T08:30:45;99097.03;;;15.92;100.00
19600;BME280;9947;57.722;12.012;2023-09-19T08:33:12;99101.06;;;15.96;100.00
19600;BME280;9947;57.722;12.012;2023-09-19T08:35:40;99112.00;;;16.17;100.00
19600;BME280;9947;57.722;12.012;2023-09-19T08:38:09;99111.69;;;15.91;100.00
19600;BME280;9947;57.722;12.012;2023-09-19T08:40:39;99111.50;;;15.48;100.00
19600;BME280;9947;57.722;12.012;2023-09-19T08:43:08;99101.66;;;15.18;100.00
19600;BME280;9947;57.722;12.012;2023-09-19T08:45:35;99132.44;;;15.33;100.00
19600;BME280;9947;57.722;12.012;2023-09-19T08:48:16;99133.38;;;15.10;100.00
19600;BME280;9947;57.722;12.012;2023-09-19T08:50:49;99122.50;;;14.73;100.00
19600;BME280;9947;57.722;12.012;2023-09-19T08:53:23;99139.97;;;14.56;100.00
19600;BME280;9947;57.722;12.012;2023-09-19T08:56:00;99141.81;;;14.63;100.00
19600;BME280;9947;57.722;12.012;2023-09-19T08:58:33;99136.94;;;14.50;100.00
19600;BME280;9947;57.722;12.012;2023-09-19T09:01:01;99143.47;;;14.41;100.00
19600;BME280;9947;57.722;12.012;2023-09-19T09:03:33;99156.13;;;14.26;100.00
19600;BME280;9947;57.722;12.012;2023-09-19T09:06:01;99147.94;;;14.34;100.00
19600;BME280;9947;57.722;12.012;2023-09-19T09:08:31;99138.38;;;14.38;100.00
19600;BME280;9947;57.722;12.012;2023-09-19T09:11:01;99142.34;;;14.28;100.00
19600;BME280;9947;57.722;12.012;2023-09-19T09:13:30;99144.53;;;14.09;100.00
19600;BME280;9947;57.722;12.012;2023-09-19T09:15:57;99141.66;;;14.03;100.00
19600;BME280;9947;57.722;12.012;2023-09-19T09:18:28;99151.91;;;13.93;100.00
19600;BME280;9947;57.722;12.012;2023-09-19T09:20:56;99156.19;;;13.79;100.00
19600;BME280;9947;57.722;12.012;2023-09-19T09:23:26;99145.69;;;13.76;100.00
19600;BME280;9947;57.722;12.012;2023-09-19T09:25:56;99163.84;;;13.75;100.00
19600;BME280;9947;57.722;12.012;2023-09-19T09:28:27;99166.22;;;13.78;100.00
19600;BME280;9947;57.722;12.012;2023-09-19T09:30:56;99159.44;;;13.82;100.00
19600;BME280;9947;57.722;12.012;2023-09-19T09:33:24;99163.00;;;13.83;100.00
19600;BME280;9947;57.722;12.012;2023-09-19T09:35:55;99176.47;;;14.07;100.00
19600;BME280;9947;57.722;12.012;2023-09-19T09:38:28;99166.03;;;14.19;100.00
19600;BME280;9947;57.722;12.012;2023-09-19T09:40:58;99170.16;;;14.38;100.00
19600;BME280;9947;57.722;12.012;2023-09-19T09:43:32;99163.19;;;14.66;100.00
19600;BME280;9947;57.722;12.012;2023-09-19T09:46:10;99169.56;;;14.96;100.00
19600;BME280;9947;57.722;12.012;2023-09-19T09:49:06;99152.59;;;15.09;100.00
19600;BME280;9947;57.722;12.012;2023-09-19T09:51:48;99182.06;;;15.05;100.00
19600;BME280;9947;57.722;12.012;2023-09-19T09:54:24;99164.75;;;14.84;100.00
19600;BME280;9947;57.722;12.012;2023-09-19T09:56:58;99172.94;;;14.61;100.00
19600;BME280;9947;57.722;12.012;2023-09-19T09:59:56;99177.56;;;14.21;100.00
19600;BME280;9947;57.722;12.012;2023-09-19T10:02:35;99177.75;;;14.19;100.00
19600;BME280;9947;57.722;12.012;2023-09-19T10:05:12;99195.00;;;13.96;100.00
19600;BME280;9947;57.722;12.012;2023-09-19T10:07:47;99204.09;;;13.72;100.00
19600;BME280;9947;57.722;12.012;2023-09-19T10:10:15;99216.34;;;13.68;100.00
19600;BME280;9947;57.722;12.012;2023-09-19T10:15:32;99231.50;;;13.38;100.00
19600;BME280;9947;57.722;12.012;2023-09-19T10:18:00;99246.44;;;13.34;100.00
19600;BME280;9947;57.722;12.012;2023-09-19T10:20:30;99246.75;;;13.47;100.00
19600;BME280;9947;57.722;12.012;2023-09-19T10:23:08;99246.09;;;13.37;100.00
19600;BME280;9947;57.722;12.012;2023-09-19T10:25:39;99250.22;;;13.88;100.00
19600;BME280;9947;57.722;12.012;2023-09-19T10:28:10;99246.16;;;14.23;100.00
19600;BME280;9947;57.722;12.012;2023-09-19T10:30:43;99240.19;;;14.28;100.00
19600;BME280;9947;57.722;12.012;2023-09-19T10:35:38;99236.34;;;14.84;100.00
19600;BME280;9947;57.722;12.012;2023-09-19T10:40:34;99225.16;;;14.48;100.00
19600;BME280;9947;57.722;12.012;2023-09-19T10:43:03;99228.06;;;14.46;100.00
19600;BME280;9947;57.722;12.012;2023-09-19T10:45:33;99214.00;;;14.43;100.00
19600;BME280;9947;57.722;12.012;2023-09-19T10:48:06;99216.66;;;14.51;100.00
19600;BME280;9947;57.722;12.012;2023-09-19T10:50:43;99211.13;;;14.36;100.00
19600;BME280;9947;57.722;12.012;2023-09-19T10:53:11;99212.28;;;14.42;100.00
19600;BME280;9947;57.722;12.012;2023-09-19T10:55:40;99213.81;;;14.44;100.00
19600;BME280;9947;57.722;12.012;2023-09-19T10:58:08;99219.25;;;14.44;100.00
19600;BME280;9947;57.722;12.012;2023-09-19T11:00:52;99205.75;;;14.20;100.00
19600;BME280;9947;57.722;12.012;2023-09-19T11:03:22;99222.03;;;13.89;100.00
19600;BME280;9947;57.722;12.012;2023-09-19T11:06:16;99244.66;;;13.81;100.00
19600;BME280;9947;57.722;12.012;2023-09-19T11:09:08;99242.44;;;13.77;100.00
19600;BME280;9947;57.722;12.012;2023-09-19T11:11:49;99238.38;;;13.81;100.00
19600;BME280;9947;57.722;12.012;2023-09-19T11:14:45;99231.34;;;13.95;100.00
19600;BME280;9947;57.722;12.012;2023-09-19T11:17:31;99242.72;;;14.29;100.00
19600;BME280;9947;57.722;12.012;2023-09-19T11:20:22;99232.84;;;14.44;100.00
19600;BME280;9947;57.722;12.012;2023-09-19T11:23:20;99231.69;;;14.31;100.00
19600;BME280;9947;57.722;12.012;2023-09-19T11:25:54;99244.38;;;14.46;100.00
19600;BME280;9947;57.722;12.012;2023-09-19T11:28:29;99244.31;;;14.55;100.00
19600;BME280;9947;57.722;12.012;2023-09-19T11:30:59;99254.91;;;14.49;100.00
19600;BME280;9947;57.722;12.012;2023-09-19T11:33:48;99256.25;;;14.76;100.00
19600;BME280;9947;57.722;12.012;2023-09-19T11:36:35;99250.69;;;14.70;100.00
19600;BME280;9947;57.722;12.012;2023-09-19T11:39:03;99255.06;;;14.48;100.00
19600;BME280;9947;57.722;12.012;2023-09-19T11:41:40;99255.56;;;14.52;100.00
19600;BME280;9947;57.722;12.012;2023-09-19T11:44:33;99266.41;;;14.60;100.00
19600;BME280;9947;57.722;12.012;2023-09-19T11:47:05;99264.72;;;14.59;100.00
19600;BME280;9947;57.722;12.012;2023-09-19T11:49:35;99256.81;;;14.72;100.00
19600;BME280;9947;57.722;12.012;2023-09-19T11:52:10;99263.56;;;14.76;100.00
19600;BME280;9947;57.722;12.012;2023-09-19T11:54:40;99265.22;;;14.62;100.00
19600;BME280;9947;57.722;12.012;2023-09-19T11:57:10;99283.59;;;14.52;100.00
19600;BME280;9947;57.722;12.012;2023-09-19T11:59:38;99276.91;;;14.32;100.00
19600;BME280;9947;57.722;12.012;2023-09-19T12:02:07;99288.63;;;14.24;100.00
19600;BME280;9947;57.722;12.012;2023-09-19T12:04:38;99296.66;;;14.17;100.00
19600;BME280;9947;57.722;12.012;2023-09-19T12:07:08;99299.44;;;14.40;100.00
19600;BME280;9947;57.722;12.012;2023-09-19T12:09:43;99305.00;;;14.55;100.00
19600;BME280;9947;57.722;12.012;2023-09-19T12:12:19;99299.91;;;14.60;100.00
19600;BME280;9947;57.722;12.012;2023-09-19T12:14:48;99311.03;;;14.73;100.00
19600;BME280;9947;57.722;12.012;2023-09-19T12:17:16;99311.13;;;14.88;100.00
19600;BME280;9947;57.722;12.012;2023-09-19T12:19:49;99301.44;;;14.86;100.00
19600;BME280;9947;57.722;12.012;2023-09-19T12:22:17;99303.13;;;14.87;100.00
19600;BME280;9947;57.722;12.012;2023-09-19T12:24:49;99302.13;;;14.88;100.00
19600;BME280;9947;57.722;12.012;2023-09-19T12:27:20;99312.00;;;14.80;100.00
19600;BME280;9947;57.722;12.012;2023-09-19T12:29:48;99322.03;;;14.80;100.00
19600;BME280;9947;57.722;12.012;2023-09-19T12:32:16;99311.38;;;14.70;100.00
19600;BME280;9947;57.722;12.012;2023-09-19T12:34:51;99315.97;;;14.70;100.00
19600;BME280;9947;57.722;12.012;2023-09-19T12:37:20;99319.16;;;15.04;100.00
19600;BME280;9947;57.722;12.012;2023-09-19T12:39:50;99310.88;;;14.98;100.00
19600;BME280;9947;57.722;12.012;2023-09-19T12:42:20;99317.47;;;15.03;100.00
19600;BME280;9947;57.722;12.012;2023-09-19T12:44:49;99307.00;;;14.92;100.00
19600;BME280;9947;57.722;12.012;2023-09-19T12:47:22;99314.88;;;14.87;100.00
19600;BME280;9947;57.722;12.012;2023-09-19T12:50:09;99308.81;;;15.00;100.00
19600;BME280;9947;57.722;12.012;2023-09-19T12:52:43;99317.47;;;15.03;100.00
19600;BME280;9947;57.722;12.012;2023-09-19T12:55:25;99309.38;;;14.95;100.00
19600;BME280;9947;57.722;12.012;2023-09-19T12:57:58;99307.06;;;15.07;100.00
19600;BME280;9947;57.722;12.012;2023-09-19T13:00:32;99302.59;;;15.14;100.00
19600;BME280;9947;57.722;12.012;2023-09-19T13:03:16;99301.97;;;15.04;100.00
19600;BME280;9947;57.722;12.012;2023-09-19T13:05:55;99309.84;;;14.99;100.00
19600;BME280;9947;57.722;12.012;2023-09-19T13:08:29;99294.66;;;15.04;100.00
19600;BME280;9947;57.722;12.012;2023-09-19T13:11:18;99300.19;;;14.96;100.00
19600;BME280;9947;57.722;12.012;2023-09-19T13:13:49;99283.19;;;14.94;100.00
19600;BME280;9947;57.722;12.012;2023-09-19T13:16:21;99291.09;;;15.04;100.00
19600;BME280;9947;57.722;12.012;2023-09-19T13:18:53;99296.63;;;15.19;100.00
19600;BME280;9947;57.722;12.012;2023-09-19T13:21:29;99293.75;;;15.35;100.00
19600;BME280;9947;57.722;12.012;2023-09-19T13:24:18;99301.03;;;15.20;100.00
19600;BME280;9947;57.722;12.012;2023-09-19T13:26:49;99291.84;;;15.21;100.00
19600;BME280;9947;57.722;12.012;2023-09-19T13:29:16;99296.78;;;15.17;100.00
19600;BME280;9947;57.722;12.012;2023-09-19T13:31:46;99281.69;;;15.15;100.00
19600;BME280;9947;57.722;12.012;2023-09-19T13:34:13;99292.84;;;15.20;100.00
19600;BME280;9947;57.722;12.012;2023-09-19T13:36:43;99288.06;;;15.22;100.00
19600;BME280;9947;57.722;12.012;2023-09-19T13:39:11;99285.66;;;15.27;100.00
19600;BME280;9947;57.722;12.012;2023-09-19T13:41:41;99284.72;;;15.34;100.00
19600;BME280;9947;57.722;12.012;2023-09-19T13:44:10;99291.09;;;15.27;100.00